Villa San Andres, Puerto Rico
Current Conditions -  °F | °C
As of 10:50 AM on Friday 28 Nov 2014 (Local Time) from TJBQ Reporting Station
Clear Clear  
Wind Chill: 82°   Ceiling: Unl
Heat Index: 85°   Visibility: 10mi
Dew Point: 66°   Wind: 8mph
Humidity: 58%   Direction: 110°ESE
Pressure: 29.98"   Gusts: NA
Location:  18.2038°N, 67.1453°W
Report Text: TJBQ 281450Z 11007KT 10SM SKC 28/19 A2998 RMK RWY 08- ATIS T
Loading
Personal Weather Stations






























Interactive Weather Map New forecast layout! Learn more

10-Day Weather Forecast

Advertisements
Track Severe Weather on mobile